createdAt,value
2023-04-08T00:04:43.034Z,5.14
2023-04-08T00:09:44.867Z,5.07
2023-04-08T00:14:46.706Z,4.85
2023-04-08T00:19:48.359Z,4.92
2023-04-08T00:24:50.007Z,4.91
2023-04-08T00:29:51.826Z,5.16
2023-04-08T00:34:53.438Z,4.91
2023-04-08T00:39:55.047Z,4.77
2023-04-08T00:44:56.975Z,4.93
2023-04-08T00:49:58.759Z,5.01
2023-04-08T00:55:00.423Z,5.04
2023-04-08T01:00:05.317Z,5.12
2023-04-08T01:05:12.231Z,5.06
2023-04-08T01:10:19.951Z,5.01
2023-04-08T01:15:22.818Z,5.21
2023-04-08T01:20:26.537Z,5.25
2023-04-08T01:25:32.476Z,5.14
2023-04-08T01:30:35.824Z,5.10
2023-04-08T01:35:37.912Z,5.22
2023-04-08T01:40:41.132Z,5.17
2023-04-08T01:45:45.568Z,5.22
2023-04-08T01:50:47.734Z,5.27
2023-04-08T01:55:55.606Z,5.29
2023-04-08T02:00:59.051Z,5.26
2023-04-08T02:06:00.920Z,5.35
2023-04-08T02:11:03.708Z,5.38
2023-04-08T02:16:33.915Z,5.59
2023-04-08T02:21:43.011Z,5.42
2023-04-08T02:26:46.300Z,5.42
2023-04-08T02:31:50.091Z,5.73
2023-04-08T02:36:52.385Z,5.67
2023-04-08T02:41:54.357Z,5.69
2023-04-08T02:46:57.119Z,5.70
2023-04-08T02:51:58.742Z,5.75
2023-04-08T02:57:00.348Z,5.60
2023-04-08T03:02:02.036Z,5.63
2023-04-08T03:07:03.739Z,5.70
2023-04-08T03:12:05.558Z,5.72
2023-04-08T03:17:07.162Z,5.79
2023-04-08T03:22:09.968Z,5.83
2023-04-08T03:27:12.666Z,5.80
2023-04-08T03:32:14.305Z,5.62
2023-04-08T03:37:15.911Z,5.59
2023-04-08T03:42:18.191Z,5.64
2023-04-08T03:47:19.885Z,5.79
2023-04-08T03:52:21.582Z,5.72
2023-04-08T03:57:23.184Z,5.77
2023-04-08T04:07:26.441Z,5.82
2023-04-08T04:12:28.064Z,5.85
2023-04-08T04:17:29.727Z,5.79
2023-04-08T04:22:31.345Z,5.85
2023-04-08T04:27:32.967Z,5.69
2023-04-08T04:32:34.573Z,5.70
2023-04-08T04:37:36.579Z,5.68
2023-04-08T04:42:38.204Z,5.80
2023-04-08T04:47:40.019Z,5.76
2023-04-08T04:52:41.848Z,5.62
2023-04-08T04:57:44.481Z,5.66
2023-04-08T05:02:46.477Z,5.74
2023-04-08T05:07:48.215Z,5.94
2023-04-08T05:12:49.818Z,5.84
2023-04-08T05:17:51.413Z,5.68
2023-04-08T05:22:53.066Z,5.85
2023-04-08T05:27:54.854Z,5.83
2023-04-08T05:32:59.404Z,5.90
2023-04-08T05:38:01.889Z,5.98
2023-04-08T05:43:03.855Z,6.06
2023-04-08T05:48:05.565Z,6.05
2023-04-08T05:53:07.199Z,6.20
2023-04-08T05:58:09.019Z,6.10
2023-04-08T06:03:11.057Z,6.10
2023-04-08T06:08:12.759Z,6.19
2023-04-08T06:13:14.371Z,6.04
2023-04-08T06:18:17.340Z,6.08
2023-04-08T06:23:18.965Z,6.23
2023-04-08T06:28:20.721Z,6.33
2023-04-08T06:33:22.421Z,6.35
2023-04-08T06:38:24.000Z,6.32
2023-04-08T06:43:25.614Z,6.44
2023-04-08T06:48:33.115Z,6.42
2023-04-08T06:53:34.980Z,6.56
2023-04-08T06:58:36.619Z,6.28
2023-04-08T07:03:38.284Z,6.33
2023-04-08T07:08:39.969Z,6.31
2023-04-08T07:13:41.665Z,6.56
2023-04-08T07:18:43.978Z,6.76
2023-04-08T07:23:45.660Z,6.85
2023-04-08T07:28:47.339Z,6.75
2023-04-08T07:33:48.954Z,6.88
2023-04-08T07:38:50.819Z,6.81
2023-04-08T07:43:52.579Z,6.83
2023-04-08T07:48:54.228Z,7.00
2023-04-08T07:53:56.013Z,7.13
2023-04-08T07:58:57.776Z,7.30
2023-04-08T08:03:59.791Z,7.60
2023-04-08T08:09:01.563Z,7.83
2023-04-08T08:14:04.670Z,7.42
2023-04-08T08:19:07.636Z,7.27
2023-04-08T08:24:09.270Z,7.52
2023-04-08T08:29:11.007Z,7.36
2023-04-08T08:34:12.610Z,7.18
2023-04-08T08:39:14.504Z,7.40
2023-04-08T08:44:16.246Z,7.93
2023-04-08T08:49:17.942Z,8.00
2023-04-08T08:54:19.588Z,8.60
2023-04-08T08:59:21.281Z,8.52
2023-04-08T09:04:23.095Z,8.32
2023-04-08T09:09:26.174Z,8.32
2023-04-08T09:14:27.781Z,8.83
2023-04-08T09:19:29.410Z,8.66
2023-04-08T09:24:31.918Z,8.58
2023-04-08T09:29:37.366Z,8.37
2023-04-08T09:34:41.266Z,8.44
2023-04-08T09:39:42.938Z,8.32
2023-04-08T09:44:46.788Z,8.55
2023-04-08T09:49:55.281Z,8.53
2023-04-08T09:55:12.559Z,8.75
2023-04-08T10:00:16.208Z,8.94
2023-04-08T10:05:18.590Z,8.95
2023-04-08T10:10:21.246Z,8.72
2023-04-08T10:15:29.898Z,9.01
2023-04-08T10:20:34.488Z,8.73
2023-04-08T10:25:41.501Z,8.78
2023-04-08T10:30:47.288Z,8.94
2023-04-08T10:35:53.808Z,9.24
2023-04-08T10:40:56.064Z,9.59
2023-04-08T10:45:57.674Z,9.20
2023-04-08T10:51:04.068Z,9.21
2023-04-08T10:56:08.132Z,8.96
2023-04-08T11:01:09.795Z,8.97
2023-04-08T11:06:11.931Z,9.45
2023-04-08T11:11:14.609Z,9.93
2023-04-08T11:16:18.501Z,9.96
2023-04-08T11:21:22.276Z,9.44
2023-04-08T11:26:25.834Z,8.94
2023-04-08T11:31:27.893Z,8.90
2023-04-08T11:36:30.239Z,8.77
2023-04-08T11:41:39.706Z,8.84
2023-04-08T11:46:42.379Z,8.74
2023-04-08T11:52:00.280Z,8.45
2023-04-08T11:57:03.119Z,8.67
2023-04-08T12:02:04.925Z,8.60
2023-04-08T12:07:06.599Z,8.65
2023-04-08T12:12:08.211Z,8.99
2023-04-08T12:17:09.835Z,9.59
2023-04-08T12:22:12.367Z,9.69
2023-04-08T12:27:13.964Z,9.14
2023-04-08T12:32:16.319Z,8.51
2023-04-08T12:37:18.043Z,8.59
2023-04-08T12:42:19.673Z,8.65
2023-04-08T12:47:21.736Z,8.83
2023-04-08T12:52:24.639Z,9.04
2023-04-08T12:57:27.354Z,9.99
2023-04-08T13:02:29.174Z,9.24
2023-04-08T13:07:31.121Z,9.08
2023-04-08T13:12:33.268Z,9.07
2023-04-08T13:17:34.941Z,8.95
2023-04-08T13:22:36.577Z,8.82
2023-04-08T13:27:38.237Z,9.07
2023-04-08T13:32:39.929Z,9.10
2023-04-08T13:37:42.290Z,9.40
2023-04-08T13:42:43.993Z,9.66
2023-04-08T13:47:45.800Z,9.55
2023-04-08T13:52:47.410Z,9.36
2023-04-08T13:57:49.001Z,8.76
2023-04-08T14:02:51.565Z,9.23
2023-04-08T14:07:53.389Z,8.32
2023-04-08T14:12:55.040Z,8.65
2023-04-08T14:17:57.172Z,9.35
2023-04-08T14:22:58.821Z,9.54
2023-04-08T14:28:00.526Z,9.00
2023-04-08T14:33:02.247Z,8.61
2023-04-08T14:38:04.037Z,8.49
2023-04-08T14:43:05.652Z,8.64
2023-04-08T14:48:07.324Z,8.64
2023-04-08T14:53:08.936Z,8.66
2023-04-08T14:58:10.625Z,8.83
2023-04-08T15:03:12.473Z,8.84
2023-04-08T15:08:14.635Z,8.64
2023-04-08T15:13:16.375Z,8.00
2023-04-08T15:18:17.975Z,8.37
2023-04-08T15:23:19.607Z,8.60
2023-04-08T15:28:21.248Z,8.76
2023-04-08T15:33:22.864Z,8.12
2023-04-08T15:38:24.539Z,8.23
2023-04-08T15:43:26.169Z,8.34
2023-04-08T15:48:27.760Z,8.09
2023-04-08T15:53:29.352Z,8.03
2023-04-08T15:58:31.153Z,7.78
2023-04-08T16:03:33.246Z,7.88
2023-04-08T16:08:35.027Z,7.83
2023-04-08T16:13:39.085Z,7.93
2023-04-08T16:18:42.039Z,7.55
2023-04-08T16:23:43.670Z,7.66
2023-04-08T16:28:45.349Z,7.91
2023-04-08T16:33:47.457Z,7.60
2023-04-08T16:38:49.183Z,7.56
2023-04-08T16:43:51.630Z,7.53
2023-04-08T16:48:53.493Z,7.22
2023-04-08T16:53:57.896Z,7.16
2023-04-08T16:59:00.348Z,7.33
2023-04-08T17:04:01.995Z,7.15
2023-04-08T17:09:04.074Z,7.44
2023-04-08T17:14:06.199Z,7.42
2023-04-08T17:19:07.820Z,7.23
2023-04-08T17:24:09.435Z,7.30
2023-04-08T17:29:11.238Z,7.29
2023-04-08T17:34:12.830Z,7.29
2023-04-08T17:39:14.424Z,6.88
2023-04-08T17:44:16.040Z,6.79
2023-04-08T17:49:18.602Z,6.86
2023-04-08T17:54:20.849Z,6.95
2023-04-08T17:59:22.532Z,7.01
2023-04-08T18:04:24.254Z,6.92
2023-04-08T18:09:25.883Z,6.91
2023-04-08T18:14:30.775Z,6.85
2023-04-08T18:19:32.491Z,6.83
2023-04-08T18:24:34.171Z,6.75
2023-04-08T18:29:36.060Z,6.73
2023-04-08T18:34:38.964Z,6.68
2023-04-08T18:39:41.081Z,6.65
2023-04-08T18:44:43.161Z,6.51
2023-04-08T18:49:44.772Z,6.42
2023-04-08T18:54:48.949Z,6.55
2023-04-08T18:59:50.782Z,6.68
2023-04-08T19:04:52.634Z,6.55
2023-04-08T19:09:58.586Z,6.58
2023-04-08T19:15:00.387Z,6.50
2023-04-08T19:20:03.231Z,6.46
2023-04-08T19:25:05.244Z,6.49
2023-04-08T19:30:07.387Z,6.40
2023-04-08T19:35:11.904Z,6.37
2023-04-08T19:40:13.563Z,5.85
2023-04-08T19:45:15.840Z,5.36
2023-04-08T19:50:17.425Z,5.07
2023-04-08T19:55:19.265Z,4.98
2023-04-08T20:00:21.309Z,4.92
2023-04-08T20:05:22.920Z,4.42
2023-04-08T20:10:24.552Z,4.43
2023-04-08T20:15:26.187Z,4.13
2023-04-08T20:20:29.905Z,4.07
2023-04-08T20:25:32.344Z,3.88
2023-04-08T20:30:33.952Z,3.73
2023-04-08T20:35:37.460Z,3.65
2023-04-08T20:40:44.151Z,3.38
2023-04-08T20:45:45.790Z,3.38
2023-04-08T20:50:50.531Z,3.21
2023-04-08T20:55:52.441Z,3.45
2023-04-08T21:00:54.306Z,3.34
2023-04-08T21:05:56.331Z,3.16
2023-04-08T21:10:58.146Z,3.21
2023-04-08T21:15:59.774Z,2.95
2023-04-08T21:21:01.630Z,2.80
2023-04-08T21:26:03.670Z,2.88
2023-04-08T21:31:12.580Z,2.74
2023-04-08T21:36:14.606Z,2.69
2023-04-08T21:41:17.263Z,2.29
2023-04-08T21:46:18.911Z,2.53
2023-04-08T21:51:20.604Z,2.49
2023-04-08T21:56:22.397Z,2.27
2023-04-08T22:01:24.130Z,2.18
2023-04-08T22:06:32.053Z,2.23
2023-04-08T22:11:34.417Z,2.00
2023-04-08T22:16:36.773Z,1.98
2023-04-08T22:21:38.393Z,1.78
2023-04-08T22:26:40.009Z,1.94
2023-04-08T22:31:41.694Z,1.99
2023-04-08T22:36:43.271Z,1.86
2023-04-08T22:41:46.766Z,1.56
2023-04-08T22:46:48.400Z,1.76
2023-04-08T22:51:50.002Z,1.70
2023-04-08T22:56:51.678Z,1.72
2023-04-08T23:01:53.367Z,1.57
2023-04-08T23:06:55.114Z,1.50
2023-04-08T23:11:57.454Z,1.31
2023-04-08T23:16:59.128Z,1.44
2023-04-08T23:22:00.766Z,1.21
2023-04-08T23:27:02.544Z,1.01
2023-04-08T23:32:04.359Z,1.21
2023-04-08T23:37:06.032Z,1.13
2023-04-08T23:42:07.631Z,0.96
2023-04-08T23:47:09.381Z,0.99
2023-04-08T23:52:11.060Z,0.96
2023-04-08T23:57:12.644Z,1.07
